Time;durP1;ratioP1;P1;durP2;ratioP2;P2;SDS_P1;SDS_P2;PMS_P1;PMS_P2;Temp;Humidity;BMP_temperature;BMP_pressure;BME280_temperature;BME280_humidity;BME280_pressure;Samples;Min_cycle;Max_cycle;Signal;HPM_P1;HPM_P2
2022/01/26 00:00:20;;;;;;;281.17;45.20;;;2.70;99.90;;;;;;5071322;28;20587;-74
2022/01/26 00:05:52;;;;;;;296.58;49.35;;;2.70;99.90;;;;;;5070612;28;20438;-74
2022/01/26 00:08:23;;;;;;;301.42;49.20;;;2.70;99.90;;;;;;5067740;28;20060;-74
2022/01/26 00:10:48;;;;;;;312.70;51.72;;;2.70;99.90;;;;;;5065613;28;20045;-74
2022/01/26 00:13:14;;;;;;;309.60;50.80;;;2.70;99.90;;;;;;5065610;28;20063;-75
2022/01/26 00:15:39;;;;;;;289.05;48.80;;;2.60;99.90;;;;;;5064484;28;20041;-74
2022/01/26 00:18:05;;;;;;;304.52;46.97;;;2.70;99.90;;;;;;5068320;28;20037;-75
2022/01/26 00:20:39;;;;;;;282.10;46.45;;;2.60;99.90;;;;;;5077825;28;20047;-73
2022/01/26 00:25:44;;;;;;;299.77;48.50;;;2.60;99.90;;;;;;5076100;28;20157;-74
2022/01/26 00:38:50;;;;;;;273.02;44.67;;;2.60;99.90;;;;;;5070730;28;20437;-74
2022/01/26 00:41:32;;;;;;;270.88;44.45;;;2.60;99.90;;;;;;5074901;28;20036;-74
2022/01/26 00:43:58;;;;;;;268.02;44.20;;;2.60;99.90;;;;;;5098042;28;20041;-74
2022/01/26 00:46:24;;;;;;;273.60;45.95;;;2.60;99.90;;;;;;5082456;28;20055;-74
2022/01/26 00:48:50;;;;;;;278.65;45.47;;;2.60;99.90;;;;;;5065169;28;20032;-74
2022/01/26 00:51:19;;;;;;;259.33;45.80;;;2.60;99.90;;;;;;5073628;28;20083;-73
2022/01/26 00:53:48;;;;;;;293.13;45.45;;;2.60;99.90;;;;;;5075392;28;20545;-75
2022/01/26 00:56:14;;;;;;;278.00;47.22;;;2.60;99.90;;;;;;5088424;28;20035;-73
2022/01/26 00:58:40;;;;;;;276.55;45.20;;;2.60;99.90;;;;;;5101822;28;20086;-74
2022/01/26 01:01:05;;;;;;;270.65;44.20;;;2.60;99.90;;;;;;5098536;27;20089;-74
2022/01/26 01:03:34;;;;;;;277.25;45.78;;;2.60;99.90;;;;;;5086087;28;20062;-73
2022/01/26 01:06:10;;;;;;;294.83;47.72;;;2.60;99.90;;;;;;5080205;28;20044;-74
2022/01/26 01:08:35;;;;;;;287.38;46.85;;;2.60;99.90;;;;;;5086746;28;20063;-73
2022/01/26 01:11:01;;;;;;;293.20;47.42;;;2.60;99.90;;;;;;5071618;28;20040;-74
2022/01/26 01:13:35;;;;;;;274.63;47.83;;;2.60;99.90;;;;;;5073069;28;20123;-74
2022/01/26 01:16:02;;;;;;;275.52;47.65;;;2.50;99.90;;;;;;5074842;28;20116;-74
2022/01/26 01:21:55;;;;;;;297.67;47.67;;;2.50;99.90;;;;;;5069209;28;20491;-74
2022/01/26 01:29:36;;;;;;;305.92;46.28;;;2.50;99.90;;;;;;5066091;28;20098;-74
2022/01/26 01:32:11;;;;;;;312.33;48.08;;;2.50;99.90;;;;;;5065819;28;20125;-74
2022/01/26 01:34:38;;;;;;;291.38;48.13;;;2.50;99.90;;;;;;5070906;28;20475;-74
2022/01/26 01:37:07;;;;;;;295.15;45.70;;;2.50;99.90;;;;;;5069532;28;20028;-74
2022/01/26 01:39:33;;;;;;;313.00;48.47;;;2.50;99.90;;;;;;5067343;28;20048;-73
2022/01/26 01:42:00;;;;;;;275.67;45.38;;;2.50;99.90;;;;;;5068749;28;20094;-75
2022/01/26 01:44:26;;;;;;;317.85;52.90;;;2.50;99.90;;;;;;5073353;28;20487;-74
2022/01/26 01:46:53;;;;;;;353.30;54.58;;;2.50;99.90;;;;;;5077445;28;20044;-74
2022/01/26 01:49:18;;;;;;;350.00;54.30;;;2.40;99.90;;;;;;5088592;28;20036;-74
2022/01/26 01:51:51;;;;;;;340.48;54.03;;;2.40;99.90;;;;;;5067209;28;20048;-74
2022/01/26 01:54:18;;;;;;;326.65;50.92;;;2.40;99.90;;;;;;5069009;28;20033;-74
2022/01/26 01:56:49;;;;;;;342.15;51.75;;;2.40;99.90;;;;;;5067605;28;20124;-74
2022/01/26 01:59:15;;;;;;;312.88;48.88;;;2.40;99.90;;;;;;5082790;28;20041;-74
2022/01/26 02:01:40;;;;;;;319.42;52.42;;;2.40;99.90;;;;;;5058538;28;20094;-74
2022/01/26 02:04:07;;;;;;;338.13;52.55;;;2.40;99.90;;;;;;5075145;28;20048;-73
2022/01/26 02:06:33;;;;;;;312.48;52.35;;;2.40;99.90;;;;;;5060517;28;20036;-74
2022/01/26 02:08:59;;;;;;;340.67;53.17;;;2.40;99.90;;;;;;5064482;28;20483;-74
2022/01/26 02:11:25;;;;;;;341.77;51.47;;;2.40;99.90;;;;;;5066390;28;20131;-74
2022/01/26 02:14:07;;;;;;;350.42;56.63;;;2.40;99.90;;;;;;5063750;28;20536;-74
2022/01/26 02:19:26;;;;;;;390.35;56.20;;;2.40;99.90;;;;;;5067198;28;19916;-73
2022/01/26 02:54:48;;;;;;;330.48;49.85;;;2.30;99.90;;;;;;5096544;28;20043;-72
2022/01/26 03:00:15;;;;;;;303.55;46.75;;;2.30;99.90;;;;;;5085113;28;20056;-73
2022/01/26 03:05:18;;;;;;;310.63;46.47;;;2.30;99.90;;;;;;5064248;28;19991;-73
2022/01/26 03:07:51;;;;;;;309.92;45.15;;;2.30;99.90;;;;;;5074061;28;20065;-74
2022/01/26 03:13:26;;;;;;;310.95;46.97;;;2.30;99.90;;;;;;5067396;28;20136;-73
2022/01/26 03:15:46;;;;;;;293.77;47.17;;;2.40;99.90;;;;;;5065196;28;20368;-74
2022/01/26 03:18:42;;;;;;;283.88;44.05;;;2.30;99.90;;;;;;5083388;28;20453;-74
2022/01/26 03:21:10;;;;;;;275.83;43.67;;;2.30;99.90;;;;;;5078992;28;20119;-74
2022/01/26 03:34:17;;;;;;;291.42;44.10;;;2.30;99.90;;;;;;5059544;28;20889;-74
2022/01/26 03:37:07;;;;;;;269.40;42.10;;;2.40;99.90;;;;;;5061568;28;20044;-73
2022/01/26 03:39:29;;;;;;;258.00;42.17;;;2.30;99.90;;;;;;5063851;28;20479;-74
2022/01/26 03:42:04;;;;;;;244.68;39.35;;;2.30;99.90;;;;;;5068334;28;20483;-73
2022/01/26 03:44:29;;;;;;;275.92;42.78;;;2.30;99.90;;;;;;5076587;28;20051;-74
2022/01/26 03:46:55;;;;;;;274.80;40.97;;;2.30;99.90;;;;;;5070725;28;20044;-74
2022/01/26 03:49:20;;;;;;;274.20;42.20;;;2.40;99.90;;;;;;5066905;28;20395;-73
2022/01/26 03:51:46;;;;;;;272.13;42.10;;;2.40;99.90;;;;;;5064338;28;20377;-74
2022/01/26 03:54:13;;;;;;;249.88;40.20;;;2.40;99.90;;;;;;5063954;28;20039;-73
2022/01/26 03:56:39;;;;;;;254.70;39.63;;;2.40;99.90;;;;;;5086305;28;20032;-74
2022/01/26 03:59:06;;;;;;;250.43;40.97;;;2.40;99.90;;;;;;5067749;28;20071;-73
2022/01/26 04:01:32;;;;;;;236.32;38.95;;;2.40;99.90;;;;;;5068081;28;20239;-74
2022/01/26 04:03:57;;;;;;;248.93;39.55;;;2.40;99.90;;;;;;5065228;28;20256;-73
2022/01/26 04:06:24;;;;;;;246.55;37.60;;;2.40;99.90;;;;;;5053071;28;20043;-73
2022/01/26 04:08:49;;;;;;;241.70;38.88;;;2.40;99.90;;;;;;5069070;28;20037;-73
2022/01/26 04:13:52;;;;;;;245.00;38.90;;;2.40;99.90;;;;;;5074187;28;20475;-74
2022/01/26 04:16:19;;;;;;;242.90;36.78;;;2.40;99.90;;;;;;5068022;28;20033;-73
2022/01/26 04:18:44;;;;;;;234.25;36.78;;;2.40;99.90;;;;;;5064450;28;20055;-74
2022/01/26 04:21:30;;;;;;;230.18;37.92;;;2.40;99.90;;;;;;5061988;28;20479;-73
2022/01/26 04:24:13;;;;;;;231.02;37.58;;;2.40;99.90;;;;;;5065753;28;20036;-74
2022/01/26 04:27:02;;;;;;;;;;;2.40;99.90;;;;;;5063135;28;20048;-74
2022/01/26 04:29:30;;;;;;;209.80;35.90;;;2.40;99.90;;;;;;5091610;28;19917;-74
2022/01/26 04:31:57;;;;;;;228.20;37.03;;;2.30;99.90;;;;;;5066364;28;20483;-74
2022/01/26 04:34:24;;;;;;;235.93;38.15;;;2.40;99.90;;;;;;5064251;28;20090;-73
2022/01/26 04:39:20;;;;;;;223.73;35.17;;;2.40;99.90;;;;;;5071554;28;20132;-74
2022/01/26 04:41:54;;;;;;;229.80;36.85;;;2.40;99.90;;;;;;5089068;28;20060;-74
2022/01/26 04:44:26;;;;;;;239.73;35.13;;;2.40;99.90;;;;;;5073157;28;20052;-74
2022/01/26 04:46:52;;;;;;;218.50;35.40;;;2.40;99.90;;;;;;5070507;28;20044;-74
2022/01/26 04:49:19;;;;;;;213.40;34.65;;;2.40;99.90;;;;;;5084977;28;20036;-73
2022/01/26 04:51:44;;;;;;;205.13;34.42;;;2.40;99.90;;;;;;5083429;28;20044;-74
2022/01/26 04:54:11;;;;;;;219.35;35.20;;;2.40;99.90;;;;;;5045115;28;20040;-74
2022/01/26 04:56:36;;;;;;;212.27;36.88;;;2.40;99.90;;;;;;5063998;28;20074;-74
2022/01/26 04:59:02;;;;;;;216.57;33.70;;;2.30;99.90;;;;;;5046280;28;20041;-74
2022/01/26 05:01:28;;;;;;;219.93;35.72;;;2.30;99.90;;;;;;5060104;28;20380;-74
2022/01/26 05:03:53;;;;;;;220.30;35.50;;;2.40;99.90;;;;;;5050508;28;20032;-74
2022/01/26 05:06:19;;;;;;;216.85;35.30;;;2.40;99.90;;;;;;5073883;28;20033;-74
2022/01/26 05:08:45;;;;;;;241.07;34.10;;;2.40;99.90;;;;;;5058650;28;20174;-74
2022/01/26 05:11:14;;;;;;;216.15;33.35;;;2.40;99.90;;;;;;5069361;28;20392;-73
2022/01/26 05:13:40;;;;;;;215.98;33.97;;;2.30;99.90;;;;;;5052174;28;20036;-74
2022/01/26 05:16:08;;;;;;;197.00;31.45;;;2.40;99.90;;;;;;5076512;28;20052;-74
2022/01/26 05:18:34;;;;;;;203.73;32.72;;;2.30;99.90;;;;;;5056005;28;20040;-74
2022/01/26 05:20:59;;;;;;;203.30;33.88;;;2.30;99.90;;;;;;5075792;28;20035;-74
2022/01/26 05:23:25;;;;;;;215.35;34.28;;;2.30;99.90;;;;;;5069071;28;20047;-73
2022/01/26 05:25:50;;;;;;;210.27;34.60;;;2.30;99.90;;;;;;5076016;28;20054;-73
2022/01/26 05:28:16;;;;;;;194.43;32.72;;;2.30;99.90;;;;;;5073174;28;20533;-73
2022/01/26 05:30:41;;;;;;;188.25;30.58;;;2.30;99.90;;;;;;5048926;28;20041;-72
2022/01/26 05:33:07;;;;;;;204.60;31.40;;;2.30;99.90;;;;;;5068974;28;20434;-74
2022/01/26 05:35:33;;;;;;;167.80;29.73;;;2.30;99.90;;;;;;5058041;28;20028;-73
2022/01/26 05:37:59;;;;;;;195.23;31.83;;;2.30;99.90;;;;;;5092319;28;20386;-74
2022/01/26 05:40:25;;;;;;;188.07;30.08;;;2.30;99.90;;;;;;5082670;28;20081;-74
2022/01/26 05:42:51;;;;;;;173.52;32.13;;;2.30;99.90;;;;;;5082352;28;20445;-75
2022/01/26 05:45:27;;;;;;;198.15;30.63;;;2.40;99.90;;;;;;5069985;28;20044;-74
2022/01/26 05:47:52;;;;;;;179.55;32.05;;;2.30;99.90;;;;;;5051102;28;20554;-74
2022/01/26 05:50:19;;;;;;;188.68;30.13;;;2.30;99.90;;;;;;5070520;28;20142;-74
2022/01/26 05:52:45;;;;;;;169.55;30.15;;;2.40;99.90;;;;;;5089542;28;20147;-74
2022/01/26 05:55:10;;;;;;;174.48;30.05;;;2.30;99.90;;;;;;5084444;28;20470;-74
2022/01/26 05:57:36;;;;;;;169.88;29.25;;;2.30;99.90;;;;;;5069613;28;20036;-73
2022/01/26 06:00:03;;;;;;;175.73;30.38;;;2.30;99.90;;;;;;5062970;28;20068;-73
2022/01/26 06:02:30;;;;;;;169.98;28.42;;;2.40;99.90;;;;;;5086579;28;20480;-74
2022/01/26 06:04:55;;;;;;;174.45;28.35;;;2.30;99.90;;;;;;5071595;28;20391;-73
2022/01/26 06:07:21;;;;;;;175.40;29.55;;;2.30;99.90;;;;;;5081084;28;20048;-74
2022/01/26 06:09:46;;;;;;;180.88;32.22;;;2.30;99.90;;;;;;5070316;28;20044;-74
2022/01/26 06:12:12;;;;;;;167.88;28.90;;;2.40;99.90;;;;;;5060679;28;20398;-73
2022/01/26 06:14:38;;;;;;;171.68;28.88;;;2.40;99.90;;;;;;5059309;28;20128;-73
2022/01/26 06:17:03;;;;;;;166.43;29.58;;;2.40;99.90;;;;;;5069302;28;20081;-74
2022/01/26 06:19:29;;;;;;;167.82;29.88;;;2.40;99.90;;;;;;5078013;28;20062;-74
2022/01/26 06:21:54;;;;;;;189.65;32.97;;;2.40;99.90;;;;;;5076821;28;20055;-74
2022/01/26 06:24:20;;;;;;;183.10;31.48;;;2.40;99.90;;;;;;5075992;28;20519;-74
2022/01/26 06:26:45;;;;;;;201.50;31.83;;;2.40;99.90;;;;;;5066035;28;20051;-74
2022/01/26 06:29:11;;;;;;;190.80;32.55;;;2.40;99.90;;;;;;5050890;28;20055;-74
2022/01/26 06:31:40;;;;;;;196.55;34.08;;;2.40;99.90;;;;;;5090065;28;20052;-72
2022/01/26 06:34:09;;;;;;;172.20;31.73;;;2.40;99.90;;;;;;5058855;28;20044;-74
2022/01/26 06:36:36;;;;;;;201.35;34.05;;;2.40;99.90;;;;;;5057427;28;20122;-74
2022/01/26 06:39:01;;;;;;;186.27;33.80;;;2.40;99.90;;;;;;5061077;28;20170;-74
2022/01/26 06:41:28;;;;;;;194.75;33.65;;;2.40;99.90;;;;;;5063264;28;20123;-74
2022/01/26 06:44:02;;;;;;;191.88;34.58;;;2.40;99.90;;;;;;5071602;28;20036;-73
2022/01/26 06:47:00;;;;;;;223.30;37.35;;;2.40;99.90;;;;;;5079170;28;20039;-75
2022/01/26 06:51:52;;;;;;;211.10;37.72;;;2.40;99.90;;;;;;5081553;28;20051;-72
2022/01/26 06:54:18;;;;;;;209.60;38.25;;;2.40;99.90;;;;;;5079917;28;20048;-74
2022/01/26 06:56:45;;;;;;;205.80;36.72;;;2.40;99.90;;;;;;5077280;28;20047;-75
2022/01/26 06:59:11;;;;;;;223.77;36.28;;;2.40;99.90;;;;;;5088439;28;20040;-74
2022/01/26 07:01:38;;;;;;;216.45;37.17;;;2.50;99.90;;;;;;5070660;28;20407;-74
2022/01/26 07:04:04;;;;;;;211.70;37.90;;;2.40;99.90;;;;;;5080540;28;20036;-75
2022/01/26 07:06:29;;;;;;;226.45;40.42;;;2.40;99.90;;;;;;5081520;28;20047;-75
2022/01/26 07:08:55;;;;;;;230.77;42.65;;;2.40;99.90;;;;;;5081905;28;20046;-74
2022/01/26 07:11:21;;;;;;;243.85;42.95;;;2.40;99.90;;;;;;5071014;28;20390;-73
2022/01/26 07:13:46;;;;;;;268.60;50.17;;;2.50;99.90;;;;;;5061846;28;20028;-74
2022/01/26 07:21:41;;;;;;;301.27;54.00;;;2.50;99.90;;;;;;5064452;28;20079;-73
2022/01/26 07:24:06;;;;;;;305.17;54.08;;;2.50;99.90;;;;;;5069853;28;20040;-74
2022/01/26 07:26:32;;;;;;;320.55;60.25;;;2.50;99.90;;;;;;5064358;28;20045;-72
2022/01/26 07:29:10;;;;;;;329.00;65.32;;;2.50;99.90;;;;;;5045867;28;20045;-74
2022/01/26 07:31:38;;;;;;;319.63;62.30;;;2.60;99.90;;;;;;5069357;28;20098;-73
2022/01/26 07:34:04;;;;;;;333.90;57.20;;;2.60;99.90;;;;;;5069205;28;20043;-74
2022/01/26 07:36:29;;;;;;;345.35;65.90;;;2.60;99.90;;;;;;5051263;28;20491;-71
2022/01/26 07:39:05;;;;;;;365.77;70.50;;;2.60;99.90;;;;;;5048799;28;20040;-71
2022/01/26 07:41:31;;;;;;;356.88;67.03;;;2.60;99.90;;;;;;5050462;28;20250;-74
2022/01/26 07:43:56;;;;;;;348.23;59.92;;;2.60;99.90;;;;;;5047545;28;20507;-73
2022/01/26 07:46:22;;;;;;;357.33;65.53;;;2.60;99.90;;;;;;5059109;28;20142;-71
2022/01/26 07:48:48;;;;;;;358.55;63.85;;;2.60;99.90;;;;;;5068151;28;20045;-74
2022/01/26 07:51:14;;;;;;;376.35;68.70;;;2.60;99.90;;;;;;5053889;28;20483;-74
2022/01/26 07:53:39;;;;;;;384.58;70.18;;;2.60;99.90;;;;;;5082688;28;20522;-74
2022/01/26 07:56:05;;;;;;;374.83;71.93;;;2.60;99.90;;;;;;5048740;28;20079;-72
2022/01/26 07:58:30;;;;;;;405.08;77.82;;;2.60;99.90;;;;;;5062600;28;20040;-71
2022/01/26 08:00:56;;;;;;;411.80;76.70;;;2.70;99.90;;;;;;5039924;28;20507;-73
2022/01/26 08:03:22;;;;;;;413.17;76.88;;;2.70;99.90;;;;;;5070999;28;20326;-72
2022/01/26 08:05:47;;;;;;;433.27;84.90;;;2.70;99.90;;;;;;5050460;28;20048;-72
2022/01/26 08:08:13;;;;;;;423.23;75.93;;;2.70;99.90;;;;;;5068947;28;20049;-73
2022/01/26 08:10:40;;;;;;;438.40;85.30;;;2.70;99.90;;;;;;5068967;28;20044;-72
2022/01/26 08:13:05;;;;;;;443.17;87.60;;;2.80;99.90;;;;;;5068678;28;20040;-72
2022/01/26 08:15:31;;;;;;;441.73;84.85;;;2.80;99.90;;;;;;5068497;28;20095;-73
2022/01/26 08:17:58;;;;;;;453.10;86.38;;;2.80;99.90;;;;;;5066856;28;20043;-73
2022/01/26 08:20:24;;;;;;;456.63;91.57;;;2.80;99.90;;;;;;5064855;28;20056;-72
2022/01/26 08:22:51;;;;;;;451.65;84.38;;;2.80;99.90;;;;;;5061354;28;20435;-72
2022/01/26 08:25:18;;;;;;;443.23;83.82;;;2.90;99.90;;;;;;5047673;28;20045;-72
2022/01/26 08:27:51;;;;;;;446.10;86.40;;;2.90;99.90;;;;;;5049104;28;20492;-69
2022/01/26 08:30:18;;;;;;;470.95;93.40;;;2.90;99.90;;;;;;5048346;28;20045;-73
2022/01/26 08:32:44;;;;;;;475.45;91.30;;;2.90;99.90;;;;;;5048098;28;20076;-70
2022/01/26 08:35:09;;;;;;;477.30;93.93;;;3.00;99.90;;;;;;5065982;28;20075;-73
2022/01/26 08:37:35;;;;;;;488.92;99.57;;;3.00;99.90;;;;;;5063608;28;20037;-73
2022/01/26 08:40:02;;;;;;;464.67;87.40;;;3.00;99.90;;;;;;5049953;28;20546;-75
2022/01/26 08:42:27;;;;;;;469.35;87.93;;;3.00;99.90;;;;;;5048209;28;20148;-73
2022/01/26 08:44:53;;;;;;;466.70;91.65;;;3.10;99.90;;;;;;5049169;28;20195;-73
2022/01/26 08:47:19;;;;;;;466.30;90.03;;;3.10;99.90;;;;;;5050994;28;20040;-72
2022/01/26 08:49:44;;;;;;;479.13;90.32;;;3.10;99.90;;;;;;5047226;28;20097;-72
2022/01/26 08:52:10;;;;;;;477.38;94.57;;;3.10;99.90;;;;;;5087388;28;20032;-72
2022/01/26 08:54:36;;;;;;;447.63;82.38;;;3.20;99.90;;;;;;5055952;28;20048;-74
2022/01/26 08:57:01;;;;;;;473.65;91.97;;;3.20;99.90;;;;;;5049013;28;20513;-72
2022/01/26 08:59:27;;;;;;;474.65;89.72;;;3.20;99.90;;;;;;5065415;28;20036;-72
2022/01/26 09:01:53;;;;;;;466.33;88.47;;;3.20;99.90;;;;;;5089393;28;20058;-73
2022/01/26 09:04:19;;;;;;;481.55;94.95;;;3.20;99.90;;;;;;5091281;28;20089;-72
2022/01/26 09:06:53;;;;;;;465.15;85.43;;;3.20;99.90;;;;;;5072834;28;20170;-71
2022/01/26 09:09:21;;;;;;;468.95;93.10;;;3.20;99.90;;;;;;5051912;28;20041;-73
2022/01/26 09:11:48;;;;;;;465.00;89.88;;;3.30;99.90;;;;;;5056919;28;20073;-72
2022/01/26 09:14:19;;;;;;;477.88;91.78;;;3.30;99.90;;;;;;5058645;28;20044;-73
2022/01/26 09:16:46;;;;;;;466.80;89.15;;;3.30;99.90;;;;;;5057747;28;20037;-73
2022/01/26 09:19:33;;;;;;;487.63;92.53;;;3.30;99.90;;;;;;5063596;28;20033;-74
2022/01/26 09:22:06;;;;;;;486.13;95.85;;;3.30;99.90;;;;;;5062373;28;20049;-73
2022/01/26 09:24:34;;;;;;;467.63;86.45;;;3.30;99.90;;;;;;5057885;28;20068;-73
2022/01/26 09:27:01;;;;;;;470.27;89.20;;;3.30;99.90;;;;;;5059452;28;20463;-71
2022/01/26 09:29:27;;;;;;;482.92;88.63;;;3.40;99.90;;;;;;5072829;28;20391;-73
2022/01/26 09:31:54;;;;;;;492.40;96.88;;;3.40;99.90;;;;;;5069434;28;20072;-73
2022/01/26 09:34:23;;;;;;;463.10;87.57;;;3.40;99.90;;;;;;5051957;28;20029;-73
2022/01/26 09:36:49;;;;;;;454.05;86.88;;;3.40;99.90;;;;;;5052832;28;20044;-74
2022/01/26 09:39:16;;;;;;;435.92;86.40;;;3.40;99.90;;;;;;5057191;28;20392;-72
2022/01/26 09:41:45;;;;;;;435.80;81.45;;;3.40;99.90;;;;;;5054001;28;20051;-73
2022/01/26 09:44:10;;;;;;;404.75;73.28;;;3.50;99.90;;;;;;5051334;28;20408;-73
2022/01/26 09:46:38;;;;;;;449.73;85.53;;;3.50;99.90;;;;;;5059656;28;20037;-74
2022/01/26 09:49:04;;;;;;;452.80;85.45;;;3.50;99.90;;;;;;5056679;28;20400;-73
2022/01/26 09:51:32;;;;;;;435.98;80.88;;;3.50;99.90;;;;;;5059135;28;20036;-73
2022/01/26 09:54:09;;;;;;;437.58;87.47;;;3.50;99.90;;;;;;5088449;28;20127;-73
2022/01/26 09:56:35;;;;;;;426.70;79.70;;;3.60;99.90;;;;;;5081340;28;20032;-73
2022/01/26 09:59:00;;;;;;;416.70;84.57;;;3.60;99.90;;;;;;5083585;28;20032;-74
2022/01/26 10:01:26;;;;;;;407.23;82.82;;;3.60;99.90;;;;;;5056119;28;20032;-72
2022/01/26 10:03:52;;;;;;;384.58;74.93;;;3.60;99.90;;;;;;5072042;28;20447;-71
2022/01/26 10:06:27;;;;;;;344.15;65.90;;;3.60;99.90;;;;;;5072074;28;20123;-73
2022/01/26 10:09:15;;;;;;;352.65;67.07;;;3.70;99.90;;;;;;5081432;28;20113;-73
2022/01/26 10:17:27;;;;;;;294.25;60.03;;;3.80;99.90;;;;;;5076914;28;20039;-74
2022/01/26 10:20:05;;;;;;;302.08;58.30;;;3.80;99.90;;;;;;5068721;28;20845;-73
2022/01/26 10:22:34;;;;;;;270.23;56.70;;;3.80;99.90;;;;;;5071302;28;20045;-70
2022/01/26 10:25:08;;;;;;;273.50;53.50;;;3.90;99.90;;;;;;5054774;28;20037;-73
2022/01/26 10:27:36;;;;;;;276.33;54.85;;;3.80;99.90;;;;;;5070730;28;20040;-73
2022/01/26 10:30:05;;;;;;;289.05;66.47;;;3.90;99.90;;;;;;5070122;28;20079;-71
2022/01/26 10:32:35;;;;;;;290.67;57.40;;;3.90;99.90;;;;;;5071613;28;20037;-73
2022/01/26 10:35:02;;;;;;;239.35;43.88;;;3.90;99.90;;;;;;5080644;28;20066;-73
2022/01/26 10:37:29;;;;;;;293.67;59.63;;;3.90;99.90;;;;;;5071320;28;20044;-71
2022/01/26 10:40:11;;;;;;;191.70;36.60;;;4.00;99.90;;;;;;5062812;28;20138;-72
2022/01/26 10:42:37;;;;;;;300.63;65.70;;;4.00;99.90;;;;;;5056624;28;20097;-72
2022/01/26 10:45:15;;;;;;;285.73;63.40;;;4.00;99.90;;;;;;5086224;28;20135;-72
2022/01/26 10:47:46;;;;;;;287.98;59.63;;;3.90;99.90;;;;;;5053091;28;20037;-73
2022/01/26 10:50:47;;;;;;;302.42;65.93;;;3.90;99.90;;;;;;5069803;28;20039;-72
2022/01/26 10:53:19;;;;;;;284.15;58.47;;;4.00;99.90;;;;;;5075037;28;20055;-71
2022/01/26 10:55:45;;;;;;;281.75;58.53;;;4.00;99.90;;;;;;5082223;28;20067;-75
2022/01/26 10:58:11;;;;;;;302.77;60.55;;;4.00;99.90;;;;;;5070872;28;20120;-72
2022/01/26 11:00:40;;;;;;;297.60;59.38;;;4.00;99.90;;;;;;5063384;28;20076;-72
2022/01/26 11:03:06;;;;;;;260.40;50.97;;;4.00;99.90;;;;;;5063102;28;20040;-71
2022/01/26 11:05:32;;;;;;;303.02;61.35;;;4.00;99.90;;;;;;5054171;28;20510;-72
2022/01/26 11:08:00;;;;;;;312.10;59.70;;;4.00;99.90;;;;;;5070305;28;20044;-72
2022/01/26 11:10:34;;;;;;;284.42;62.28;;;4.00;99.90;;;;;;5084502;28;20083;-71
2022/01/26 11:13:00;;;;;;;288.95;55.95;;;4.00;99.90;;;;;;5082250;28;20099;-72
2022/01/26 11:15:26;;;;;;;283.33;57.70;;;4.00;99.90;;;;;;5069807;28;20124;-73
2022/01/26 11:17:52;;;;;;;290.35;61.25;;;4.00;99.90;;;;;;5070081;28;20143;-72
2022/01/26 11:20:31;;;;;;;282.45;58.13;;;4.00;99.90;;;;;;5067837;28;20404;-73
2022/01/26 11:23:03;;;;;;;235.05;45.83;;;4.00;99.90;;;;;;5087885;28;20112;-72
2022/01/26 11:25:39;;;;;;;238.18;47.28;;;4.00;99.90;;;;;;5069429;28;20344;-73
2022/01/26 11:28:19;;;;;;;251.43;54.72;;;4.10;99.90;;;;;;5067324;28;20040;-72
2022/01/26 11:30:45;;;;;;;264.75;58.25;;;4.10;99.90;;;;;;5069153;28;20093;-71
2022/01/26 11:33:23;;;;;;;251.82;54.30;;;4.00;99.90;;;;;;5058486;28;20159;-74
2022/01/26 11:35:51;;;;;;;231.93;45.10;;;4.00;99.90;;;;;;5067852;28;20044;-74
2022/01/26 11:46:51;;;;;;;245.85;53.90;;;4.00;99.90;;;;;;5049772;28;20132;-71
2022/01/26 11:49:26;;;;;;;279.08;55.97;;;4.10;99.90;;;;;;5049323;28;20127;-71
2022/01/26 11:51:56;;;;;;;266.70;49.60;;;4.10;99.90;;;;;;5048499;28;20517;-72
2022/01/26 11:54:25;;;;;;;270.27;55.10;;;4.10;99.90;;;;;;5058196;28;20036;-72
2022/01/26 11:57:08;;;;;;;273.33;56.60;;;4.10;99.90;;;;;;5065368;28;20038;-71
2022/01/26 11:59:40;;;;;;;274.20;58.47;;;4.10;99.90;;;;;;5054420;28;20040;-72
2022/01/26 12:02:21;;;;;;;265.63;54.25;;;4.10;99.90;;;;;;5068417;28;20074;-72
2022/01/26 12:04:58;;;;;;;274.75;53.95;;;4.10;99.90;;;;;;5066443;28;20076;-73
2022/01/26 12:07:24;;;;;;;252.65;48.70;;;4.10;99.90;;;;;;5060306;28;20049;-74
2022/01/26 12:09:50;;;;;;;260.95;51.53;;;4.20;99.90;;;;;;5068475;28;20411;-73
2022/01/26 12:12:20;;;;;;;235.05;49.42;;;4.20;99.90;;;;;;5048621;28;20041;-72
2022/01/26 12:15:07;;;;;;;242.85;56.42;;;4.20;99.90;;;;;;5094583;28;20055;-72
2022/01/26 12:17:38;;;;;;;235.65;48.10;;;4.20;99.90;;;;;;5069560;28;20080;-72
2022/01/26 12:34:33;;;;;;;282.85;57.47;;;4.20;99.90;;;;;;5068461;28;20044;-71
2022/01/26 12:37:11;;;;;;;278.08;53.90;;;4.10;99.90;;;;;;5051605;28;20661;-72
2022/01/26 12:43:03;;;;;;;273.70;51.58;;;4.20;99.90;;;;;;5091492;28;20056;-73
2022/01/26 12:45:24;;;;;;;271.58;51.53;;;4.20;99.90;;;;;;5062255;28;20075;-72
2022/01/26 12:47:52;;;;;;;267.23;50.08;;;4.20;99.90;;;;;;5083025;28;20051;-72
2022/01/26 12:50:18;;;;;;;259.58;52.60;;;4.20;99.90;;;;;;5071876;28;20048;-73
2022/01/26 12:52:46;;;;;;;262.13;49.67;;;4.20;99.90;;;;;;5079778;28;20051;-72
2022/01/26 12:55:29;;;;;;;270.27;54.28;;;4.30;99.90;;;;;;5083380;28;20048;-72
2022/01/26 12:57:55;;;;;;;;;;;4.30;99.90;;;;;;5051973;28;20471;-72
2022/01/26 13:00:23;;;;;;;248.43;48.70;;;4.20;99.90;;;;;;5070672;28;19916;-72
2022/01/26 13:02:50;;;;;;;242.38;46.67;;;4.20;99.90;;;;;;5064360;28;20048;-72
2022/01/26 13:05:25;;;;;;;231.15;48.75;;;4.20;99.90;;;;;;5053688;28;20040;-73
2022/01/26 13:08:04;;;;;;;232.80;49.30;;;4.20;99.90;;;;;;5097149;28;20072;-73
2022/01/26 13:10:31;;;;;;;234.63;49.45;;;4.20;99.90;;;;;;5052226;28;20503;-72
2022/01/26 13:13:17;;;;;;;247.30;48.03;;;4.20;99.90;;;;;;5059727;28;20064;-72
2022/01/26 13:15:49;;;;;;;249.38;49.10;;;4.20;99.90;;;;;;5070837;28;20267;-72
2022/01/26 13:18:20;;;;;;;267.38;51.00;;;4.20;99.90;;;;;;5061946;28;20037;-72
2022/01/26 13:23:28;;;;;;;280.88;55.70;;;4.20;99.90;;;;;;5082089;28;20097;-72
2022/01/26 13:31:30;;;;;;;255.70;53.65;;;4.20;99.90;;;;;;5061337;28;20052;-73
2022/01/26 13:37:04;;;;;;;289.17;60.78;;;4.20;99.90;;;;;;5052885;28;20051;-71
2022/01/26 13:39:45;;;;;;;273.50;57.08;;;4.20;99.90;;;;;;5055756;28;20040;-71
2022/01/26 13:50:18;;;;;;;268.05;51.75;;;4.30;99.90;;;;;;5052241;28;20307;-71
2022/01/26 13:52:59;;;;;;;265.45;51.67;;;4.40;99.90;;;;;;5071378;28;20115;-71
2022/01/26 13:55:43;;;;;;;261.00;51.10;;;4.40;99.90;;;;;;5063230;28;20072;-72
2022/01/26 14:00:52;;;;;;;247.10;51.35;;;4.50;99.90;;;;;;5074427;28;20044;-70
2022/01/26 14:03:21;;;;;;;245.77;48.47;;;4.50;99.90;;;;;;5080342;28;20127;-70
2022/01/26 14:05:47;;;;;;;244.63;46.80;;;4.60;99.90;;;;;;5058836;28;20041;-70
2022/01/26 14:08:12;;;;;;;239.75;49.70;;;4.60;99.90;;;;;;5056820;28;20048;-70
2022/01/26 14:10:38;;;;;;;227.35;50.95;;;4.60;99.90;;;;;;5062423;28;20044;-71
2022/01/26 14:13:04;;;;;;;243.27;48.60;;;4.60;99.90;;;;;;5079881;28;20135;-70
2022/01/26 14:15:43;;;;;;;233.55;49.42;;;4.70;99.90;;;;;;5073425;28;20054;-72
2022/01/26 14:18:35;;;;;;;241.40;48.85;;;4.70;99.90;;;;;;5073867;28;20048;-68
2022/01/26 14:21:24;;;;;;;223.75;49.60;;;4.70;99.90;;;;;;5097920;28;20044;-71
2022/01/26 14:26:20;;;;;;;240.13;50.85;;;4.70;99.90;;;;;;5082939;28;20068;-68
2022/01/26 14:28:45;;;;;;;238.13;50.47;;;4.80;99.90;;;;;;5071758;28;20085;-70
2022/01/26 14:55:14;;;;;;;206.95;44.90;;;4.80;99.90;;;;;;5061579;28;20475;-70
2022/01/26 15:01:04;;;;;;;203.18;44.60;;;4.80;99.90;;;;;;5065425;28;20546;-72
2022/01/26 15:09:22;;;;;;;215.88;47.85;;;4.80;99.90;;;;;;5055458;28;20072;-70
2022/01/26 15:31:45;;;;;;;206.77;40.30;;;4.70;99.90;;;;;;5057964;28;20054;-71
2022/01/26 15:34:01;;;;;;;203.02;40.42;;;4.60;99.90;;;;;;5057909;28;20040;-72
2022/01/26 15:44:52;;;;;;;212.15;44.45;;;4.70;99.90;;;;;;5060054;28;20067;-73
2022/01/26 15:58:12;;;;;;;209.32;45.63;;;4.70;99.90;;;;;;5056222;28;20115;-74
2022/01/26 16:06:16;;;;;;;223.98;41.97;;;4.70;99.90;;;;;;5092209;28;20101;-69
2022/01/26 16:35:07;;;;;;;193.07;44.35;;;4.80;99.90;;;;;;5055674;28;20090;-72
2022/01/26 16:52:33;;;;;;;186.82;41.60;;;4.90;99.90;;;;;;5053470;28;20427;-73
2022/01/26 17:11:06;;;;;;;193.85;43.30;;;5.00;99.90;;;;;;5056132;28;20072;-71
2022/01/26 17:34:28;;;;;;;186.10;44.63;;;5.10;99.90;;;;;;5071202;28;20047;-70
2022/01/26 17:46:44;;;;;;;170.88;39.85;;;5.10;99.90;;;;;;5067001;28;20463;-71
2022/01/26 17:47:00;;;;;;;178.93;42.53;;;5.10;99.90;;;;;;5056528;28;20070;-70
2022/01/26 18:17:58;;;;;;;168.60;47.38;;;5.20;99.90;;;;;;5063462;28;20046;-73